Time;durP1;ratioP1;P1;durP2;ratioP2;P2;SDS_P1;SDS_P2;PMS_P1;PMS_P2;Temp;Humidity;BMP_temperature;BMP_pressure;BME280_temperature;BME280_humidity;BME280_pressure;Samples;Min_cycle;Max_cycle;Signal;HPM_P1;HPM_P2
2023/03/05 00:01:40;;;;;;;;;;;;;;;21.20;37.49;100295.27;103650;1308;61322;-84
2023/03/05 00:04:06;;;;;;;;;;;;;;;21.20;37.47;100295.29;103644;1308;61756;-83
2023/03/05 00:06:32;;;;;;;;;;;;;;;21.20;37.51;100291.88;103656;1308;61339;-82
2023/03/05 00:08:58;;;;;;;;;;;;;;;21.20;37.46;100290.65;103841;1308;62756;-85
2023/03/05 00:11:26;;;;;;;;;;;;;;;21.20;37.41;100289.22;103657;1308;61339;-83
2023/03/05 00:13:55;;;;;;;;;;;;;;;21.20;37.42;100289.73;103660;1309;73726;-84
2023/03/05 00:16:20;;;;;;;;;;;;;;;21.20;37.42;100288.54;103826;1309;74591;-84
2023/03/05 00:18:46;;;;;;;;;;;;;;;21.20;37.55;100286.70;103633;1308;61303;-84
2023/03/05 00:21:38;;;;;;;;;;;;;;;21.19;37.43;100282.29;103658;1308;61324;-84
2023/03/05 00:24:05;;;;;;;;;;;;;;;21.19;37.56;100286.77;103093;1314;73851;-85
2023/03/05 00:26:33;;;;;;;;;;;;;;;21.20;37.53;100284.21;103132;1314;74272;-84
2023/03/05 00:28:59;;;;;;;;;;;;;;;21.20;37.53;100283.30;103023;1317;61333;-84
2023/03/05 00:31:28;;;;;;;;;;;;;;;21.20;37.47;100279.89;103053;1317;61279;-84
2023/03/05 00:33:56;;;;;;;;;;;;;;;21.21;37.44;100278.96;103081;1317;72369;-83
2023/03/05 00:36:22;;;;;;;;;;;;;;;21.20;37.46;100272.73;102959;1314;75162;-83
2023/03/05 00:38:47;;;;;;;;;;;;;;;21.20;37.47;100275.42;102968;1316;61350;-84
2023/03/05 00:41:13;;;;;;;;;;;;;;;21.20;37.46;100272.36;103131;1314;61272;-83
2023/03/05 00:43:38;;;;;;;;;;;;;;;21.20;37.44;100269.86;102869;1318;61329;-83
2023/03/05 00:46:04;;;;;;;;;;;;;;;21.20;37.49;100270.77;103085;1315;61953;-83
2023/03/05 00:48:31;;;;;;;;;;;;;;;21.20;37.32;100269.55;102983;1315;61183;-83
2023/03/05 00:50:56;;;;;;;;;;;;;;;21.20;37.34;100267.04;103024;1314;61109;-84
2023/03/05 00:53:22;;;;;;;;;;;;;;;21.19;37.43;100266.02;103047;1314;61342;-83
2023/03/05 00:55:47;;;;;;;;;;;;;;;21.20;37.35;100263.14;103198;1314;61775;-84
2023/03/05 00:58:13;;;;;;;;;;;;;;;21.20;37.45;100264.55;103073;1317;61362;-85
2023/03/05 01:00:39;;;;;;;;;;;;;;;21.20;37.43;100267.60;103175;1308;61403;-84
2023/03/05 01:03:04;;;;;;;;;;;;;;;21.19;37.36;100264.92;103677;1308;61273;-83
2023/03/05 01:05:31;;;;;;;;;;;;;;;21.19;37.40;100265.65;103667;1311;61316;-83
2023/03/05 01:07:57;;;;;;;;;;;;;;;21.19;37.32;100262.25;103651;1308;72551;-84
2023/03/05 01:10:26;;;;;;;;;;;;;;;21.19;37.28;100260.84;103639;1308;61341;-83
2023/03/05 01:12:53;;;;;;;;;;;;;;;21.19;37.38;100260.30;103646;1308;61145;-82
2023/03/05 01:15:18;;;;;;;;;;;;;;;21.19;37.36;100261.74;103463;1308;61209;-84
2023/03/05 01:17:46;;;;;;;;;;;;;;;21.19;37.44;100257.98;103843;1309;61279;-84
2023/03/05 01:20:12;;;;;;;;;;;;;;;21.19;37.25;100261.02;103634;1308;74292;-84
2023/03/05 01:22:38;;;;;;;;;;;;;;;21.19;37.19;100262.11;103545;1309;61310;-83
2023/03/05 01:25:05;;;;;;;;;;;;;;;21.19;37.34;100258.17;103650;1311;61314;-83
2023/03/05 01:27:31;;;;;;;;;;;;;;;21.19;37.30;100261.40;103382;1312;61536;-85
2023/03/05 01:29:57;;;;;;;;;;;;;;;21.19;37.30;100266.06;103375;1311;61342;-83
2023/03/05 01:32:22;;;;;;;;;;;;;;;21.19;37.46;100271.40;103459;1311;61345;-84
2023/03/05 01:34:48;;;;;;;;;;;;;;;21.19;37.39;100270.16;103487;1311;61473;-84
2023/03/05 01:37:14;;;;;;;;;;;;;;;21.18;37.32;100271.27;103468;1311;61291;-84
2023/03/05 01:39:39;;;;;;;;;;;;;;;21.19;37.31;100274.80;103333;1312;61452;-84
2023/03/05 01:42:05;;;;;;;;;;;;;;;21.19;37.30;100274.48;103432;1311;61321;-83
2023/03/05 01:44:31;;;;;;;;;;;;;;;21.19;37.36;100275.90;103356;1311;59997;-83
2023/03/05 01:46:56;;;;;;;;;;;;;;;21.18;37.27;100276.63;103399;1312;61423;-83
2023/03/05 01:49:24;;;;;;;;;;;;;;;21.19;37.34;100275.36;103423;1311;61407;-83
2023/03/05 01:51:55;;;;;;;;;;;;;;;21.19;37.31;100279.13;103433;1314;61335;-84
2023/03/05 01:54:21;;;;;;;;;;;;;;;21.19;37.27;100279.31;103350;1311;61224;-85
2023/03/05 01:56:47;;;;;;;;;;;;;;;21.19;37.28;100282.16;103328;1314;61327;-83
2023/03/05 01:59:13;;;;;;;;;;;;;;;21.19;37.19;100279.84;103266;1311;61300;-84
2023/03/05 02:01:39;;;;;;;;;;;;;;;21.19;37.27;100278.92;103295;1311;61301;-83
2023/03/05 02:04:05;;;;;;;;;;;;;;;21.19;37.27;100281.96;103352;1311;61308;-84
2023/03/05 02:06:31;;;;;;;;;;;;;;;21.19;37.23;100279.30;103335;1314;61426;-84
2023/03/05 02:08:56;;;;;;;;;;;;;;;21.18;37.28;100280.95;103417;1311;61358;-84
2023/03/05 02:11:22;;;;;;;;;;;;;;;21.19;37.32;100279.48;103445;1308;61345;-84
2023/03/05 02:13:48;;;;;;;;;;;;;;;21.19;37.28;100279.85;103816;1309;74538;-83
2023/03/05 02:16:13;;;;;;;;;;;;;;;21.19;37.26;100283.92;103699;1308;59285;-84
2023/03/05 02:18:39;;;;;;;;;;;;;;;21.19;37.21;100288.23;103689;1308;61326;-84
2023/03/05 02:21:05;;;;;;;;;;;;;;;21.19;37.22;100289.49;103652;1308;61375;-85
2023/03/05 02:23:32;;;;;;;;;;;;;;;21.19;37.14;100290.77;103451;1308;61417;-84
2023/03/05 02:25:59;;;;;;;;;;;;;;;21.19;37.33;100289.87;103699;1312;61271;-84
2023/03/05 02:28:30;;;;;;;;;;;;;;;21.18;37.31;100292.76;103457;1308;61435;-82
2023/03/05 02:30:56;;;;;;;;;;;;;;;21.18;37.13;100299.92;103847;1308;73942;-84
2023/03/05 02:33:23;;;;;;;;;;;;;;;21.19;37.23;100301.50;103637;1308;59505;-84
2023/03/05 02:35:48;;;;;;;;;;;;;;;21.18;37.28;100305.45;103637;1309;61330;-83
2023/03/05 02:38:15;;;;;;;;;;;;;;;21.18;37.31;100306.36;103657;1309;61386;-83
2023/03/05 02:40:40;;;;;;;;;;;;;;;21.18;37.16;100312.45;103833;1308;61201;-84
2023/03/05 02:43:07;;;;;;;;;;;;;;;21.18;37.20;100313.73;103673;1308;61323;-85
2023/03/05 02:45:33;;;;;;;;;;;;;;;21.18;37.14;100318.52;103643;1308;61457;-84
2023/03/05 02:47:58;;;;;;;;;;;;;;;21.19;37.30;100319.40;103706;1308;61304;-84
2023/03/05 02:50:25;;;;;;;;;;;;;;;21.18;37.26;100316.58;103645;1308;61343;-83
2023/03/05 02:52:50;;;;;;;;;;;;;;;21.17;37.16;100318.94;103620;1314;61148;-83
2023/03/05 02:55:16;;;;;;;;;;;;;;;21.18;37.17;100317.13;103465;1315;61810;-84
2023/03/05 02:57:42;;;;;;;;;;;;;;;21.18;37.23;100317.85;103453;1315;61333;-83
2023/03/05 03:00:07;;;;;;;;;;;;;;;21.18;37.27;100316.60;103404;1313;63125;-84
2023/03/05 03:02:33;;;;;;;;;;;;;;;21.17;37.16;100316.29;103409;1314;61403;-83
2023/03/05 03:05:00;;;;;;;;;;;;;;;21.18;37.31;100314.83;103474;1316;61371;-83
2023/03/05 03:07:26;;;;;;;;;;;;;;;21.18;37.30;100318.76;103421;1311;75262;-84
2023/03/05 03:09:51;;;;;;;;;;;;;;;21.18;37.26;100318.95;103388;1315;61349;-83
2023/03/05 03:12:17;;;;;;;;;;;;;;;21.17;37.18;100319.36;103432;1314;61156;-81
2023/03/05 03:14:43;;;;;;;;;;;;;;;21.17;37.10;100321.45;103412;1312;61388;-83
2023/03/05 03:17:10;;;;;;;;;;;;;;;21.17;37.18;100318.80;103384;1311;61825;-83
2023/03/05 03:19:36;;;;;;;;;;;;;;;21.17;37.15;100312.02;103398;1315;61349;-84
2023/03/05 03:22:02;;;;;;;;;;;;;;;21.17;37.07;100306.30;103405;1317;61402;-83
2023/03/05 03:24:30;;;;;;;;;;;;;;;21.17;37.23;100296.59;103379;1314;61540;-83
2023/03/05 03:26:56;;;;;;;;;;;;;;;21.17;37.07;100296.08;103661;1308;61313;-84
2023/03/05 03:29:22;;;;;;;;;;;;;;;21.17;37.00;100298.40;103662;1308;61391;-83
2023/03/05 03:31:47;;;;;;;;;;;;;;;21.17;37.11;100296.79;103656;1308;61381;-83
2023/03/05 03:34:14;;;;;;;;;;;;;;;21.17;37.11;100297.18;103682;1312;59263;-83
2023/03/05 03:36:40;;;;;;;;;;;;;;;21.17;37.04;100297.86;103507;1308;61288;-84
2023/03/05 03:39:08;;;;;;;;;;;;;;;21.17;37.15;100295.86;103468;1308;75573;-84
2023/03/05 03:41:34;;;;;;;;;;;;;;;21.17;37.18;100291.79;103639;1308;61301;-83
2023/03/05 03:44:02;;;;;;;;;;;;;;;21.17;37.06;100292.34;103852;1309;61169;-83
2023/03/05 03:46:27;;;;;;;;;;;;;;;21.17;37.13;100295.02;103807;1308;73052;-84
2023/03/05 03:48:53;;;;;;;;;;;;;;;21.17;37.09;100292.17;103619;1308;61329;-84
2023/03/05 03:51:18;;;;;;;;;;;;;;;21.17;37.03;100288.93;103654;1308;61321;-83
2023/03/05 03:53:44;;;;;;;;;;;;;;;21.17;36.84;100290.20;103694;1308;61441;-84
2023/03/05 03:56:10;;;;;;;;;;;;;;;21.17;37.02;100293.08;103908;1308;61342;-84
2023/03/05 03:58:35;;;;;;;;;;;;;;;21.17;36.97;100302.55;103664;1308;72683;-83
2023/03/05 04:01:01;;;;;;;;;;;;;;;21.17;36.93;100302.55;103859;1309;61605;-83
2023/03/05 04:03:26;;;;;;;;;;;;;;;21.17;37.13;100301.13;103874;1308;61732;-83
2023/03/05 04:05:52;;;;;;;;;;;;;;;21.17;37.09;100300.06;103656;1308;61268;-83
2023/03/05 04:08:18;;;;;;;;;;;;;;;21.17;36.97;100303.09;103665;1310;61397;-83
2023/03/05 04:10:43;;;;;;;;;;;;;;;21.17;36.93;100306.14;103709;1308;61258;-84
2023/03/05 04:13:09;;;;;;;;;;;;;;;21.17;37.05;100311.49;103854;1308;74540;-83
2023/03/05 04:15:35;;;;;;;;;;;;;;;21.17;36.99;100312.01;103662;1308;61505;-83
2023/03/05 04:18:00;;;;;;;;;;;;;;;21.17;37.06;100313.11;103863;1308;61336;-84
2023/03/05 04:20:26;;;;;;;;;;;;;;;21.17;37.13;100317.95;103875;1308;61266;-84
2023/03/05 04:22:51;;;;;;;;;;;;;;;21.17;37.04;100311.67;103696;1308;61386;-82
2023/03/05 04:25:17;;;;;;;;;;;;;;;21.16;36.99;100309.73;103619;1308;74475;-83
2023/03/05 04:27:42;;;;;;;;;;;;;;;21.16;36.94;100314.92;103871;1308;61407;-83
2023/03/05 04:30:08;;;;;;;;;;;;;;;21.17;37.02;100316.14;103676;1308;61419;-83
2023/03/05 04:32:34;;;;;;;;;;;;;;;21.16;37.01;100316.86;103623;1308;61282;-84
2023/03/05 04:34:59;;;;;;;;;;;;;;;21.16;37.06;100316.52;103434;1308;59412;-82
2023/03/05 04:37:25;;;;;;;;;;;;;;;21.17;36.87;100321.70;103684;1308;61330;-82
2023/03/05 04:39:51;;;;;;;;;;;;;;;21.16;37.14;100324.61;103672;1308;61265;-82
2023/03/05 04:42:18;;;;;;;;;;;;;;;21.16;36.97;100331.27;103667;1308;61383;-83
2023/03/05 04:44:43;;;;;;;;;;;;;;;21.16;37.03;100337.12;103859;1308;61313;-82
2023/03/05 04:47:10;;;;;;;;;;;;;;;21.16;37.02;100340.73;103634;1308;61432;-83
2023/03/05 04:49:36;;;;;;;;;;;;;;;21.16;37.01;100340.91;103657;1308;61402;-83
2023/03/05 04:52:01;;;;;;;;;;;;;;;21.16;36.79;100340.91;103649;1308;61345;-82
2023/03/05 04:54:27;;;;;;;;;;;;;;;21.16;36.95;100340.37;103614;1308;61218;-82
2023/03/05 04:56:53;;;;;;;;;;;;;;;21.16;36.98;100340.36;103643;1308;61298;-83
2023/03/05 04:59:18;;;;;;;;;;;;;;;21.16;36.88;100336.95;103934;1308;61390;-84
2023/03/05 05:01:44;;;;;;;;;;;;;;;21.16;37.13;100341.44;103456;1308;61332;-83
2023/03/05 05:04:09;;;;;;;;;;;;;;;21.16;36.89;100346.61;103636;1308;61435;-84
2023/03/05 05:06:35;;;;;;;;;;;;;;;21.16;36.92;100345.70;103648;1308;59487;-83
2023/03/05 05:09:01;;;;;;;;;;;;;;;21.16;37.09;100349.64;103623;1308;61301;-83
2023/03/05 05:11:26;;;;;;;;;;;;;;;21.17;36.83;100352.30;103642;1308;61268;-83
2023/03/05 05:13:52;;;;;;;;;;;;;;;21.17;36.95;100353.71;103665;1312;61285;-83
2023/03/05 05:16:17;;;;;;;;;;;;;;;21.17;36.91;100356.39;103687;1308;62485;-84
2023/03/05 05:18:43;;;;;;;;;;;;;;;21.17;36.91;100361.05;103653;1308;61253;-83
2023/03/05 05:21:09;;;;;;;;;;;;;;;21.17;37.06;100364.61;103630;1308;61771;-84
2023/03/05 05:23:34;;;;;;;;;;;;;;;21.17;36.81;100372.83;103645;1308;61772;-84
2023/03/05 05:26:02;;;;;;;;;;;;;;;21.18;36.92;100381.76;103670;1308;61192;-83
2023/03/05 05:28:27;;;;;;;;;;;;;;;21.18;36.87;100389.45;103885;1308;61335;-83
2023/03/05 05:30:54;;;;;;;;;;;;;;;21.18;36.91;100404.98;103836;1308;61470;-84
2023/03/05 05:33:20;;;;;;;;;;;;;;;21.18;36.87;100411.94;103637;1308;61471;-83
2023/03/05 05:35:45;;;;;;;;;;;;;;;21.19;36.95;100403.49;103731;1308;61412;-84
2023/03/05 05:38:11;;;;;;;;;;;;;;;21.18;36.94;100405.48;103657;1311;61313;-84
2023/03/05 05:41:00;;;;;;;;;;;;;;;21.19;36.98;100404.40;103645;1310;61384;-83
2023/03/05 05:43:25;;;;;;;;;;;;;;;21.19;36.90;100409.71;103163;1314;75414;-83
2023/03/05 05:45:51;;;;;;;;;;;;;;;21.20;36.91;100410.77;102955;1317;61368;-83
2023/03/05 05:48:16;;;;;;;;;;;;;;;21.19;36.91;100412.21;103093;1315;61460;-83
2023/03/05 05:50:42;;;;;;;;;;;;;;;21.20;36.85;100423.80;102906;1314;61346;-83
2023/03/05 05:53:10;;;;;;;;;;;;;;;21.20;36.79;100426.83;102981;1317;61629;-84
2023/03/05 05:55:38;;;;;;;;;;;;;;;21.21;36.76;100424.63;102988;1317;74414;-84
2023/03/05 05:58:04;;;;;;;;;;;;;;;21.20;36.91;100423.56;102989;1316;61144;-84
2023/03/05 06:00:29;;;;;;;;;;;;;;;21.20;36.88;100423.96;102958;1315;61416;-83
2023/03/05 06:02:55;;;;;;;;;;;;;;;21.21;36.89;100424.09;102943;1318;62005;-83
2023/03/05 06:05:20;;;;;;;;;;;;;;;21.20;36.85;100427.30;102975;1315;61442;-84
2023/03/05 06:07:46;;;;;;;;;;;;;;;21.21;36.93;100428.02;103081;1317;61320;-83
2023/03/05 06:10:12;;;;;;;;;;;;;;;21.21;36.86;100429.63;103015;1315;61335;-83
2023/03/05 06:12:37;;;;;;;;;;;;;;;21.21;36.83;100427.48;103131;1314;61284;-83
2023/03/05 06:15:03;;;;;;;;;;;;;;;21.21;36.79;100428.73;102935;1315;61214;-84
2023/03/05 06:17:29;;;;;;;;;;;;;;;21.21;36.86;100432.13;102919;1314;61921;-84
2023/03/05 06:19:54;;;;;;;;;;;;;;;21.21;36.74;100433.58;103043;1311;61594;-83
2023/03/05 06:22:20;;;;;;;;;;;;;;;21.21;36.81;100435.89;103674;1308;61330;-83
2023/03/05 06:24:45;;;;;;;;;;;;;;;21.20;36.78;100435.56;103450;1308;61425;-84
2023/03/05 06:27:11;;;;;;;;;;;;;;;21.21;36.76;100435.00;103641;1308;61306;-85
2023/03/05 06:29:37;;;;;;;;;;;;;;;21.20;36.89;100435.39;103636;1308;61314;-84
2023/03/05 06:32:02;;;;;;;;;;;;;;;21.20;36.73;100438.09;103416;1311;61316;-83
2023/03/05 06:34:28;;;;;;;;;;;;;;;21.21;36.74;100437.48;103536;1312;61300;-82
2023/03/05 06:36:54;;;;;;;;;;;;;;;21.20;36.71;100434.85;103362;1312;61317;-84
2023/03/05 06:39:19;;;;;;;;;;;;;;;21.20;36.76;100439.70;103304;1311;61330;-83
2023/03/05 06:41:45;;;;;;;;;;;;;;;21.20;36.84;100442.00;103232;1312;61327;-83
2023/03/05 06:44:11;;;;;;;;;;;;;;;21.21;36.74;100440.02;103505;1311;61481;-84
2023/03/05 06:46:38;;;;;;;;;;;;;;;21.20;36.59;100441.46;103318;1311;61333;-83
2023/03/05 06:49:03;;;;;;;;;;;;;;;21.21;36.70;100443.18;103496;1311;61349;-83
2023/03/05 06:51:29;;;;;;;;;;;;;;;21.21;36.82;100440.33;103419;1312;61588;-84
2023/03/05 06:53:57;;;;;;;;;;;;;;;21.21;36.72;100438.54;103424;1311;61320;-83
2023/03/05 06:56:24;;;;;;;;;;;;;;;21.22;36.77;100437.61;103444;1312;60598;-83
2023/03/05 06:58:50;;;;;;;;;;;;;;;21.21;36.58;100438.01;103442;1311;61394;-82
2023/03/05 07:01:15;;;;;;;;;;;;;;;21.21;36.60;100443.01;103411;1312;61435;-84
2023/03/05 07:03:41;;;;;;;;;;;;;;;21.22;36.81;100444.23;103254;1314;617859;-84
2023/03/05 07:06:08;;;;;;;;;;;;;;;21.21;36.70;100445.89;103478;1308;61306;-83
2023/03/05 07:08:34;;;;;;;;;;;;;;;21.21;36.69;100446.63;103627;1310;61296;-83
2023/03/05 07:10:59;;;;;;;;;;;;;;;21.21;36.73;100451.80;103600;1310;61217;-83
2023/03/05 07:13:26;;;;;;;;;;;;;;;21.21;36.69;100449.14;103683;1309;61330;-84
2023/03/05 07:15:52;;;;;;;;;;;;;;;21.22;36.67;100451.58;103620;1310;73692;-84
2023/03/05 07:18:17;;;;;;;;;;;;;;;21.22;36.59;100456.02;103654;1309;61483;-83
2023/03/05 07:20:43;;;;;;;;;;;;;;;21.22;36.64;100454.80;103621;1308;61328;-83
2023/03/05 07:23:09;;;;;;;;;;;;;;;21.23;36.57;100457.04;103432;1311;61358;-83
2023/03/05 07:25:35;;;;;;;;;;;;;;;21.22;36.52;100452.94;103849;1308;62178;-83
2023/03/05 07:28:00;;;;;;;;;;;;;;;21.23;36.54;100452.16;103481;1308;61339;-84
2023/03/05 07:30:26;;;;;;;;;;;;;;;21.23;36.63;100451.10;103845;1308;61173;-84
2023/03/05 07:32:51;;;;;;;;;;;;;;;21.23;36.69;100449.66;103651;1308;61431;-84
2023/03/05 07:35:17;;;;;;;;;;;;;;;21.24;36.48;100449.45;103648;1312;61262;-85
2023/03/05 07:37:42;;;;;;;;;;;;;;;21.24;36.68;100449.10;103640;1308;61304;-84
2023/03/05 07:40:09;;;;;;;;;;;;;;;21.24;36.45;100447.10;103685;1309;61236;-84
2023/03/05 07:42:35;;;;;;;;;;;;;;;21.24;36.65;100444.77;103479;1308;61276;-84
2023/03/05 07:45:01;;;;;;;;;;;;;;;21.24;36.43;100443.88;103645;1308;61348;-84
2023/03/05 07:47:26;;;;;;;;;;;;;;;21.25;36.46;100440.80;103583;1308;61307;-84
2023/03/05 07:49:52;;;;;;;;;;;;;;;21.24;36.50;100437.61;103675;1309;61275;-84
2023/03/05 07:52:18;;;;;;;;;;;;;;;21.24;36.43;100433.48;103861;1312;61311;-84
2023/03/05 07:54:43;;;;;;;;;;;;;;;21.24;36.41;100427.39;103634;1308;61413;-83
2023/03/05 07:57:11;;;;;;;;;;;;;;;21.24;36.43;100426.35;103889;1308;61276;-84
2023/03/05 07:59:38;;;;;;;;;;;;;;;21.24;36.43;100429.56;103635;1308;72533;-83
2023/03/05 08:02:03;;;;;;;;;;;;;;;21.24;36.43;100427.39;103676;1309;61301;-84
2023/03/05 08:04:30;;;;;;;;;;;;;;;21.25;36.44;100425.92;103627;1308;61316;-84
2023/03/05 08:06:57;;;;;;;;;;;;;;;21.25;36.39;100422.17;103894;1308;61405;-83
2023/03/05 08:09:22;;;;;;;;;;;;;;;21.25;36.29;100419.66;103469;1308;61320;-83
2023/03/05 08:11:48;;;;;;;;;;;;;;;21.25;36.41;100424.46;103617;1308;61358;-84
2023/03/05 08:14:13;;;;;;;;;;;;;;;21.25;36.33;100421.62;103867;1308;60037;-83
2023/03/05 08:16:39;;;;;;;;;;;;;;;21.24;36.39;100421.27;103663;1308;61255;-84
2023/03/05 08:19:08;;;;;;;;;;;;;;;21.25;36.48;100421.45;103843;1308;61308;-84
2023/03/05 08:21:34;;;;;;;;;;;;;;;21.25;36.43;100419.65;103601;1308;72607;-84
2023/03/05 08:24:01;;;;;;;;;;;;;;;21.25;36.35;100417.89;103863;1308;61310;-84
2023/03/05 08:26:27;;;;;;;;;;;;;;;21.25;36.38;100416.93;103636;1309;60161;-85
2023/03/05 08:28:53;;;;;;;;;;;;;;;21.25;36.48;100414.64;103653;1311;61153;-84
2023/03/05 08:31:20;;;;;;;;;;;;;;;21.25;36.34;100414.98;103590;1308;61304;-83
2023/03/05 08:33:46;;;;;;;;;;;;;;;21.25;36.39;100414.60;103826;1308;61629;-83
2023/03/05 08:36:12;;;;;;;;;;;;;;;21.25;36.35;100411.41;103880;1308;61318;-84
2023/03/05 08:38:37;;;;;;;;;;;;;;;21.25;36.38;100409.40;103621;1308;61306;-84
2023/03/05 08:41:03;;;;;;;;;;;;;;;21.25;36.42;100409.43;103649;1314;61359;-83
2023/03/05 08:43:30;;;;;;;;;;;;;;;21.26;36.21;100410.27;103660;1311;61156;-83
2023/03/05 08:45:56;;;;;;;;;;;;;;;21.25;36.37;100408.34;103833;1309;75510;-83
2023/03/05 08:48:21;;;;;;;;;;;;;;;21.25;36.33;100413.90;103629;1308;61310;-83
2023/03/05 08:50:47;;;;;;;;;;;;;;;21.25;36.25;100411.38;103655;1308;61467;-83
2023/03/05 08:53:13;;;;;;;;;;;;;;;21.26;36.30;100410.64;103640;1309;61426;-84
2023/03/05 08:55:39;;;;;;;;;;;;;;;21.25;36.22;100406.70;103638;1309;61411;-84
2023/03/05 08:58:04;;;;;;;;;;;;;;;21.25;36.34;100404.75;103484;1308;61321;-84
2023/03/05 09:00:30;;;;;;;;;;;;;;;21.26;36.31;100402.55;103712;1308;61288;-84
2023/03/05 09:02:56;;;;;;;;;;;;;;;21.26;36.27;100396.80;103634;1309;61311;-83
2023/03/05 09:05:21;;;;;;;;;;;;;;;21.26;36.34;100390.55;103651;1308;61312;-83
2023/03/05 09:07:47;;;;;;;;;;;;;;;21.27;36.25;100392.50;103856;1308;61406;-83
2023/03/05 09:10:13;;;;;;;;;;;;;;;21.27;36.27;100389.80;103646;1308;61310;-82
2023/03/05 09:12:39;;;;;;;;;;;;;;;21.27;36.29;100387.45;103851;1308;61326;-84
2023/03/05 09:15:07;;;;;;;;;;;;;;;21.27;36.22;100387.45;103652;1308;59308;-84
2023/03/05 09:17:33;;;;;;;;;;;;;;;21.28;36.26;100389.55;103617;1308;61206;-84
2023/03/05 09:19:59;;;;;;;;;;;;;;;21.28;36.24;100381.86;103476;1308;61435;-84
2023/03/05 09:22:25;;;;;;;;;;;;;;;21.28;36.31;100373.06;103850;1308;61316;-83
2023/03/05 09:24:50;;;;;;;;;;;;;;;21.29;36.10;100369.81;103615;1308;61190;-83
2023/03/05 09:27:17;;;;;;;;;;;;;;;21.29;36.08;100370.16;103671;1308;61287;-83
2023/03/05 09:29:42;;;;;;;;;;;;;;;21.29;36.27;100371.95;103850;1308;74435;-83
2023/03/05 09:32:08;;;;;;;;;;;;;;;21.29;36.09;100368.69;103627;1308;61425;-84
2023/03/05 09:34:33;;;;;;;;;;;;;;;21.30;36.21;100365.77;103640;1308;61288;-83
2023/03/05 09:36:59;;;;;;;;;;;;;;;21.30;36.26;100357.85;103877;1308;61326;-83
2023/03/05 09:39:24;;;;;;;;;;;;;;;21.31;36.03;100359.95;103614;1308;61322;-83
2023/03/05 09:41:56;;;;;;;;;;;;;;;21.31;36.04;100353.16;103620;1308;74365;-83
2023/03/05 09:44:25;;;;;;;;;;;;;;;21.31;36.10;100352.42;103768;1308;61331;-83
2023/03/05 09:47:09;;;;;;;;;;;;;;;21.31;36.10;100354.55;103755;1308;61339;-83
2023/03/05 09:49:42;;;;;;;;;;;;;;;21.32;36.02;100350.25;103814;1313;73596;-83
2023/03/05 09:52:21;;;;;;;;;;;;;;;21.32;36.15;100343.09;103823;1311;75407;-82
2023/03/05 09:54:48;;;;;;;;;;;;;;;21.32;36.02;100337.52;103877;1308;61279;-84
2023/03/05 09:57:17;;;;;;;;;;;;;;;21.32;36.12;100337.52;103587;1311;61208;-83
2023/03/05 09:59:49;;;;;;;;;;;;;;;21.32;35.97;100338.73;103628;1309;72639;-83
2023/03/05 10:02:18;;;;;;;;;;;;;;;21.33;35.98;100336.75;103651;1308;75623;-84
2023/03/05 10:04:46;;;;;;;;;;;;;;;21.33;35.97;100322.89;103593;1309;61199;-83
2023/03/05 10:07:13;;;;;;;;;;;;;;;21.34;36.05;100315.71;103862;1308;61208;-83
2023/03/05 10:09:48;;;;;;;;;;;;;;;21.33;35.94;100312.69;103827;1309;73425;-83
2023/03/05 10:12:32;;;;;;;;;;;;;;;21.33;35.90;100310.71;103623;1312;74475;-84
2023/03/05 10:14:59;;;;;;;;;;;;;;;21.33;36.09;100307.48;103873;1309;61783;-84
2023/03/05 10:17:51;;;;;;;;;;;;;;;21.34;35.88;100302.04;103625;1308;61244;-84
2023/03/05 10:20:20;;;;;;;;;;;;;;;21.34;35.95;100296.14;103831;1313;72610;-84
2023/03/05 10:22:51;;;;;;;;;;;;;;;21.34;36.06;100295.23;103815;1308;75595;-83
2023/03/05 10:25:19;;;;;;;;;;;;;;;21.34;36.10;100286.11;103840;1308;61206;-83
2023/03/05 10:27:48;;;;;;;;;;;;;;;21.35;35.96;100281.96;103810;1309;61388;-84
2023/03/05 10:30:17;;;;;;;;;;;;;;;21.35;36.21;100274.23;103834;1308;73560;-84
2023/03/05 10:32:45;;;;;;;;;;;;;;;21.36;35.92;100267.05;103841;1309;74580;-84
2023/03/05 10:35:43;;;;;;;;;;;;;;;21.36;35.91;100268.46;103831;1308;61271;-83
2023/03/05 10:38:19;;;;;;;;;;;;;;;21.36;36.00;100257.13;103456;1308;61535;-84
2023/03/05 10:40:45;;;;;;;;;;;;;;;21.37;36.12;100253.89;103787;1308;71888;-83
2023/03/05 10:43:16;;;;;;;;;;;;;;;21.37;35.97;100252.59;103817;1308;61340;-84
2023/03/05 10:45:43;;;;;;;;;;;;;;;21.37;36.07;100249.20;103810;1308;61429;-84
2023/03/05 10:48:12;;;;;;;;;;;;;;;21.37;36.01;100248.64;103429;1308;61644;-84
2023/03/05 10:50:41;;;;;;;;;;;;;;;21.38;35.93;100242.69;103829;1308;71606;-82
2023/03/05 10:53:36;;;;;;;;;;;;;;;21.38;35.97;100236.75;103611;1309;75425;-83
2023/03/05 10:56:02;;;;;;;;;;;;;;;21.39;35.91;100236.35;103010;1317;61322;-84
2023/03/05 10:58:30;;;;;;;;;;;;;;;21.39;35.97;100229.70;103639;1311;61551;-83
2023/03/05 11:01:01;;;;;;;;;;;;;;;21.39;35.93;100228.30;103817;1309;72432;-83
2023/03/05 11:03:56;;;;;;;;;;;;;;;21.39;36.05;100225.42;103799;1309;74398;-83
2023/03/05 11:06:30;;;;;;;;;;;;;;;21.39;35.96;100217.14;103110;1317;61447;-84
2023/03/05 11:09:13;;;;;;;;;;;;;;;21.39;36.00;100212.11;103106;1315;61205;-85
2023/03/05 11:12:04;;;;;;;;;;;;;;;21.40;36.09;100210.30;103040;1316;73726;-83
2023/03/05 11:14:32;;;;;;;;;;;;;;;21.40;35.99;100210.08;102681;1321;74679;-84
2023/03/05 11:16:58;;;;;;;;;;;;;;;21.41;35.95;100208.09;102671;1320;61429;-83
2023/03/05 11:19:38;;;;;;;;;;;;;;;21.40;35.97;100204.52;102685;1321;61263;-83
2023/03/05 11:22:24;;;;;;;;;;;;;;;21.41;35.93;100199.82;102715;1320;73405;-82
2023/03/05 11:25:03;;;;;;;;;;;;;;;21.41;35.91;100191.92;102694;1320;75595;-84
2023/03/05 11:27:35;;;;;;;;;;;;;;;21.42;36.07;100184.36;102682;1320;61333;-83
2023/03/05 11:30:02;;;;;;;;;;;;;;;21.42;35.86;100184.30;102673;1320;61224;-83
2023/03/05 11:32:43;;;;;;;;;;;;;;;21.42;35.94;100175.89;102647;1320;72385;-85
2023/03/05 11:35:25;;;;;;;;;;;;;;;21.43;35.95;100176.95;102670;1321;61436;-84
2023/03/05 11:37:58;;;;;;;;;;;;;;;21.43;36.04;100170.84;102696;1320;61216;-83
2023/03/05 11:40:24;;;;;;;;;;;;;;;21.43;36.03;100169.79;102698;1321;61404;-83
2023/03/05 11:42:56;;;;;;;;;;;;;;;21.43;35.96;100167.45;102781;1320;61259;-84
2023/03/05 11:45:22;;;;;;;;;;;;;;;21.43;35.91;100162.95;103089;1318;74188;-83
2023/03/05 11:47:48;;;;;;;;;;;;;;;21.43;35.91;100155.05;103076;1317;61401;-83
2023/03/05 11:50:20;;;;;;;;;;;;;;;21.43;35.85;100157.02;103116;1317;61315;-83
2023/03/05 11:53:08;;;;;;;;;;;;;;;21.43;35.86;100152.39;103705;1308;72364;-84
2023/03/05 11:55:33;;;;;;;;;;;;;;;21.43;36.06;100148.23;103821;1308;74899;-84
2023/03/05 11:58:06;;;;;;;;;;;;;;;21.44;35.98;100148.58;103861;1309;61348;-83
2023/03/05 12:00:33;;;;;;;;;;;;;;;21.44;35.98;100142.66;103790;1308;61179;-82
2023/03/05 12:02:59;;;;;;;;;;;;;;;21.45;36.00;100142.64;103814;1308;72327;-84
2023/03/05 12:05:26;;;;;;;;;;;;;;;21.44;35.88;100139.27;103601;1309;61295;-84
2023/03/05 12:07:56;;;;;;;;;;;;;;;21.45;35.82;100136.34;103670;1313;61326;-83
2023/03/05 12:10:22;;;;;;;;;;;;;;;21.45;36.07;100134.02;103638;1308;61314;-82
2023/03/05 12:12:59;;;;;;;;;;;;;;;21.45;36.10;100133.27;103813;1310;72692;-83
2023/03/05 12:15:30;;;;;;;;;;;;;;;21.45;35.83;100133.65;103643;1308;74344;-83
2023/03/05 12:18:08;;;;;;;;;;;;;;;21.45;35.98;100130.23;103833;1308;61160;-84
2023/03/05 12:20:37;;;;;;;;;;;;;;;21.45;35.97;100123.92;103823;1308;61475;-84
2023/03/05 12:23:03;;;;;;;;;;;;;;;21.46;36.04;100121.94;103824;1308;72327;-84
2023/03/05 12:25:45;;;;;;;;;;;;;;;21.46;35.96;100117.83;103655;1308;61291;-83
2023/03/05 12:28:33;;;;;;;;;;;;;;;21.46;35.94;100110.64;103653;1308;61228;-83